sensor_id;sensor_type;location;lat;lon;timestamp;pressure;altitude;pressure_sealevel;temperature;humidity
19576;BME280;41589;51.196;7.074;2023-11-18T00:00:55;99765.69;;;6.90;75.89
19576;BME280;41589;51.196;7.074;2023-11-18T00:05:55;99760.75;;;6.71;76.25
19576;BME280;41589;51.196;7.074;2023-11-18T00:10:55;99763.56;;;6.71;77.22
19576;BME280;41589;51.196;7.074;2023-11-18T00:15:56;99766.44;;;6.64;76.48
19576;BME280;41589;51.196;7.074;2023-11-18T00:20:58;99762.47;;;6.61;77.31
19576;BME280;41589;51.196;7.074;2023-11-18T00:25:59;99770.03;;;6.64;77.00
19576;BME280;41589;51.196;7.074;2023-11-18T00:30:59;99768.56;;;6.56;76.67
19576;BME280;41589;51.196;7.074;2023-11-18T00:36:01;99760.16;;;6.56;76.92
19576;BME280;41589;51.196;7.074;2023-11-18T00:41:06;99760.63;;;6.51;76.33
19576;BME280;41589;51.196;7.074;2023-11-18T00:46:07;99753.88;;;6.49;77.14
19576;BME280;41589;51.196;7.074;2023-11-18T00:51:07;99745.78;;;6.54;77.06
19576;BME280;41589;51.196;7.074;2023-11-18T00:56:08;99745.78;;;6.54;76.83
19576;BME280;41589;51.196;7.074;2023-11-18T01:01:12;99742.63;;;6.52;76.44
19576;BME280;41589;51.196;7.074;2023-11-18T01:06:13;99740.31;;;6.47;76.44
19576;BME280;41589;51.196;7.074;2023-11-18T01:11:17;99737.16;;;6.45;76.32
19576;BME280;41589;51.196;7.074;2023-11-18T01:16:22;99739.97;;;6.42;76.02
19576;BME280;41589;51.196;7.074;2023-11-18T01:21:22;99745.19;;;6.39;75.99
19576;BME280;41589;51.196;7.074;2023-11-18T01:26:23;99741.97;;;6.41;75.97
19576;BME280;41589;51.196;7.074;2023-11-18T01:31:23;99751.53;;;6.44;75.85
19576;BME280;41589;51.196;7.074;2023-11-18T01:36:24;99759.59;;;6.38;75.98
19576;BME280;41589;51.196;7.074;2023-11-18T01:41:24;99771.63;;;6.35;75.72
19576;BME280;41589;51.196;7.074;2023-11-18T01:46:25;99783.72;;;6.25;75.74
19576;BME280;41589;51.196;7.074;2023-11-18T01:51:25;99770.94;;;6.24;76.27
19576;BME280;41589;51.196;7.074;2023-11-18T01:56:27;99770.09;;;6.27;76.50
19576;BME280;41589;51.196;7.074;2023-11-18T02:01:28;99765.25;;;6.31;76.84
19576;BME280;41589;51.196;7.074;2023-11-18T02:06:29;99761.25;;;6.35;76.30
19576;BME280;41589;51.196;7.074;2023-11-18T02:11:48;99763.66;;;6.30;76.60
19576;BME280;41589;51.196;7.074;2023-11-18T02:16:53;99754.84;;;6.35;76.83
19576;BME280;41589;51.196;7.074;2023-11-18T02:21:56;99751.63;;;6.36;76.06
19576;BME280;41589;51.196;7.074;2023-11-18T02:26:58;99748.84;;;6.36;76.57
19576;BME280;41589;51.196;7.074;2023-11-18T02:32:05;99750.84;;;6.36;76.58
19576;BME280;41589;51.196;7.074;2023-11-18T02:37:09;99752.28;;;6.48;76.83
19576;BME280;41589;51.196;7.074;2023-11-18T02:42:12;99747.53;;;6.45;76.88
19576;BME280;41589;51.196;7.074;2023-11-18T02:47:13;99741.16;;;6.44;76.38
19576;BME280;41589;51.196;7.074;2023-11-18T02:52:14;99732.38;;;6.42;76.17
19576;BME280;41589;51.196;7.074;2023-11-18T02:57:15;99746.75;;;6.44;76.81
19576;BME280;41589;51.196;7.074;2023-11-18T03:02:15;99744.75;;;6.45;77.08
19576;BME280;41589;51.196;7.074;2023-11-18T03:07:15;99748.69;;;6.47;76.88
19576;BME280;41589;51.196;7.074;2023-11-18T03:12:16;99757.47;;;6.49;76.48
19576;BME280;41589;51.196;7.074;2023-11-18T03:17:16;99739.88;;;6.49;76.18
19576;BME280;41589;51.196;7.074;2023-11-18T03:22:17;99737.00;;;6.56;76.74
19576;BME280;41589;51.196;7.074;2023-11-18T03:27:17;99735.50;;;6.48;76.17
19576;BME280;41589;51.196;7.074;2023-11-18T03:32:18;99713.97;;;6.45;76.31
19576;BME280;41589;51.196;7.074;2023-11-18T03:37:19;99709.97;;;6.46;76.44
19576;BME280;41589;51.196;7.074;2023-11-18T03:42:19;99702.81;;;6.41;76.45
19576;BME280;41589;51.196;7.074;2023-11-18T03:47:19;99693.97;;;6.46;77.05
19576;BME280;41589;51.196;7.074;2023-11-18T03:52:24;99711.50;;;6.50;76.75
19576;BME280;41589;51.196;7.074;2023-11-18T03:57:24;99723.38;;;6.58;76.33
19576;BME280;41589;51.196;7.074;2023-11-18T04:02:24;99726.22;;;6.54;76.25
19576;BME280;41589;51.196;7.074;2023-11-18T04:07:25;99748.91;;;6.60;76.52
19576;BME280;41589;51.196;7.074;2023-11-18T04:12:26;99751.19;;;6.68;76.64
19576;BME280;41589;51.196;7.074;2023-11-18T04:17:27;99736.00;;;6.70;76.13
19576;BME280;41589;51.196;7.074;2023-11-18T04:22:28;99717.22;;;6.70;76.49
19576;BME280;41589;51.196;7.074;2023-11-18T04:27:28;99716.84;;;6.68;76.66
19576;BME280;41589;51.196;7.074;2023-11-18T04:32:30;99710.91;;;6.62;75.90
19576;BME280;41589;51.196;7.074;2023-11-18T04:37:34;99699.78;;;6.59;76.52
19576;BME280;41589;51.196;7.074;2023-11-18T04:42:34;99687.38;;;6.60;76.33
19576;BME280;41589;51.196;7.074;2023-11-18T04:47:36;99688.22;;;6.57;76.00
19576;BME280;41589;51.196;7.074;2023-11-18T04:52:37;99675.50;;;6.52;76.49
19576;BME280;41589;51.196;7.074;2023-11-18T04:57:38;99663.84;;;6.57;77.07
19576;BME280;41589;51.196;7.074;2023-11-18T05:02:39;99667.38;;;6.61;76.59
19576;BME280;41589;51.196;7.074;2023-11-18T05:07:40;99656.94;;;6.65;76.68
19576;BME280;41589;51.196;7.074;2023-11-18T05:12:41;99644.09;;;6.68;76.78
19576;BME280;41589;51.196;7.074;2023-11-18T05:17:43;99640.50;;;6.67;76.50
19576;BME280;41589;51.196;7.074;2023-11-18T05:22:44;99620.06;;;6.71;76.65
19576;BME280;41589;51.196;7.074;2023-11-18T05:27:44;99617.03;;;6.61;76.15
19576;BME280;41589;51.196;7.074;2023-11-18T05:32:44;99602.66;;;6.59;76.55
19576;BME280;41589;51.196;7.074;2023-11-18T05:37:45;99613.38;;;6.64;77.21
19576;BME280;41589;51.196;7.074;2023-11-18T05:42:45;99616.13;;;6.68;76.57
19576;BME280;41589;51.196;7.074;2023-11-18T05:47:48;99626.56;;;6.64;76.75
19576;BME280;41589;51.196;7.074;2023-11-18T05:52:48;99619.72;;;6.68;77.35
19576;BME280;41589;51.196;7.074;2023-11-18T05:57:49;99618.84;;;6.72;76.89
19576;BME280;41589;51.196;7.074;2023-11-18T06:02:49;99623.28;;;6.69;77.25
19576;BME280;41589;51.196;7.074;2023-11-18T06:07:50;99608.44;;;6.72;77.83
19576;BME280;41589;51.196;7.074;2023-11-18T06:12:50;99604.44;;;6.73;77.48
19576;BME280;41589;51.196;7.074;2023-11-18T06:17:51;99593.56;;;6.79;77.14
19576;BME280;41589;51.196;7.074;2023-11-18T06:22:52;99594.34;;;6.79;77.52
19576;BME280;41589;51.196;7.074;2023-11-18T06:27:52;99579.03;;;6.87;78.13
19576;BME280;41589;51.196;7.074;2023-11-18T06:32:55;99579.81;;;6.88;77.52
19576;BME280;41589;51.196;7.074;2023-11-18T06:37:55;99581.31;;;6.92;78.16
19576;BME280;41589;51.196;7.074;2023-11-18T06:42:57;99585.25;;;6.95;77.49
19576;BME280;41589;51.196;7.074;2023-11-18T06:48:02;99587.59;;;7.00;77.95
19576;BME280;41589;51.196;7.074;2023-11-18T06:53:03;99581.47;;;7.05;77.54
19576;BME280;41589;51.196;7.074;2023-11-18T06:58:04;99597.00;;;7.10;78.19
19576;BME280;41589;51.196;7.074;2023-11-18T07:03:04;99582.59;;;7.11;78.34
19576;BME280;41589;51.196;7.074;2023-11-18T07:08:05;99589.69;;;7.16;78.28
19576;BME280;41589;51.196;7.074;2023-11-18T07:13:07;99611.97;;;7.23;78.25
19576;BME280;41589;51.196;7.074;2023-11-18T07:18:10;99625.97;;;7.23;78.28
19576;BME280;41589;51.196;7.074;2023-11-18T07:23:10;99627.00;;;7.33;78.37
19576;BME280;41589;51.196;7.074;2023-11-18T07:28:12;99618.06;;;7.38;78.37
19576;BME280;41589;51.196;7.074;2023-11-18T07:33:16;99600.00;;;7.42;78.82
19576;BME280;41589;51.196;7.074;2023-11-18T07:38:17;99584.34;;;7.45;78.42
19576;BME280;41589;51.196;7.074;2023-11-18T07:43:20;99591.88;;;7.48;78.61
19576;BME280;41589;51.196;7.074;2023-11-18T07:48:21;99601.50;;;7.47;79.17
19576;BME280;41589;51.196;7.074;2023-11-18T07:53:22;99580.53;;;7.55;78.35
19576;BME280;41589;51.196;7.074;2023-11-18T07:58:22;99583.69;;;7.57;78.19
19576;BME280;41589;51.196;7.074;2023-11-18T08:03:23;99571.56;;;7.64;78.13
19576;BME280;41589;51.196;7.074;2023-11-18T08:08:23;99576.72;;;7.65;78.89
19576;BME280;41589;51.196;7.074;2023-11-18T08:13:24;99575.84;;;7.68;78.75
19576;BME280;41589;51.196;7.074;2023-11-18T08:18:24;99574.56;;;7.73;78.61
19576;BME280;41589;51.196;7.074;2023-11-18T08:23:24;99574.47;;;7.76;78.79
19576;BME280;41589;51.196;7.074;2023-11-18T08:28:25;99583.53;;;7.84;79.12
19576;BME280;41589;51.196;7.074;2023-11-18T08:33:25;99584.53;;;7.94;78.99
19576;BME280;41589;51.196;7.074;2023-11-18T08:38:26;99581.97;;;7.99;78.91
19576;BME280;41589;51.196;7.074;2023-11-18T08:43:28;99594.78;;;8.00;78.73
19576;BME280;41589;51.196;7.074;2023-11-18T08:48:29;99582.63;;;8.07;79.75
19576;BME280;41589;51.196;7.074;2023-11-18T08:53:29;99582.03;;;8.16;79.15
19576;BME280;41589;51.196;7.074;2023-11-18T08:58:29;99592.81;;;8.17;79.11
19576;BME280;41589;51.196;7.074;2023-11-18T09:03:34;99584.72;;;8.23;79.58
19576;BME280;41589;51.196;7.074;2023-11-18T09:08:36;99581.47;;;8.24;79.34
19576;BME280;41589;51.196;7.074;2023-11-18T09:13:38;99578.66;;;8.24;79.41
19576;BME280;41589;51.196;7.074;2023-11-18T09:18:42;99559.81;;;8.25;79.53
19576;BME280;41589;51.196;7.074;2023-11-18T09:23:45;99557.28;;;8.30;79.92
19576;BME280;41589;51.196;7.074;2023-11-18T09:28:48;99549.56;;;8.34;79.58
19576;BME280;41589;51.196;7.074;2023-11-18T09:33:50;99545.97;;;8.50;80.17
19576;BME280;41589;51.196;7.074;2023-11-18T09:38:53;99529.47;;;8.52;79.80
19576;BME280;41589;51.196;7.074;2023-11-18T09:43:53;99537.72;;;8.59;79.74
19576;BME280;41589;51.196;7.074;2023-11-18T09:59:50;99533.06;;;8.69;80.34
19576;BME280;41589;51.196;7.074;2023-11-18T10:04:56;99527.97;;;8.80;79.70
19576;BME280;41589;51.196;7.074;2023-11-18T10:09:58;99526.94;;;8.74;80.18
19576;BME280;41589;51.196;7.074;2023-11-18T10:14:59;99531.03;;;8.86;79.77
19576;BME280;41589;51.196;7.074;2023-11-18T10:19:59;99532.84;;;8.92;80.22
19576;BME280;41589;51.196;7.074;2023-11-18T10:25:00;99509.72;;;8.88;80.38
19576;BME280;41589;51.196;7.074;2023-11-18T10:30:03;99493.63;;;9.05;81.04
19576;BME280;41589;51.196;7.074;2023-11-18T10:35:04;99466.56;;;9.11;80.43
19576;BME280;41589;51.196;7.074;2023-11-18T10:40:10;99464.69;;;9.21;81.02
19576;BME280;41589;51.196;7.074;2023-11-18T10:45:23;99436.72;;;9.30;80.72
19576;BME280;41589;51.196;7.074;2023-11-18T10:50:23;99429.09;;;9.31;80.38
19576;BME280;41589;51.196;7.074;2023-11-18T10:55:35;99414.84;;;9.38;80.33
19576;BME280;41589;51.196;7.074;2023-11-18T11:00:46;99402.34;;;9.39;80.64
19576;BME280;41589;51.196;7.074;2023-11-18T11:05:52;99418.75;;;9.40;80.82
19576;BME280;41589;51.196;7.074;2023-11-18T11:10:56;99422.03;;;9.51;80.28
19576;BME280;41589;51.196;7.074;2023-11-18T11:15:59;99392.34;;;9.50;80.52
19576;BME280;41589;51.196;7.074;2023-11-18T11:21:20;99391.91;;;9.65;80.60
19576;BME280;41589;51.196;7.074;2023-11-18T11:27:03;99384.47;;;9.71;80.67
19576;BME280;41589;51.196;7.074;2023-11-18T11:32:30;99392.91;;;9.71;80.65
19576;BME280;41589;51.196;7.074;2023-11-18T11:37:32;99380.19;;;9.66;80.23
19576;BME280;41589;51.196;7.074;2023-11-18T11:42:34;99398.53;;;9.71;80.66
19576;BME280;41589;51.196;7.074;2023-11-18T11:47:36;99401.13;;;9.78;80.72
19576;BME280;41589;51.196;7.074;2023-11-18T11:52:46;99378.22;;;9.79;81.12
19576;BME280;41589;51.196;7.074;2023-11-18T11:57:52;99366.50;;;9.81;80.96
19576;BME280;41589;51.196;7.074;2023-11-18T12:03:00;99372.00;;;9.84;81.01
19576;BME280;41589;51.196;7.074;2023-11-18T12:08:08;99371.41;;;9.77;81.12
19576;BME280;41589;51.196;7.074;2023-11-18T12:13:12;99372.59;;;9.79;81.62
19576;BME280;41589;51.196;7.074;2023-11-18T12:18:20;99365.00;;;9.76;80.95
19576;BME280;41589;51.196;7.074;2023-11-18T12:23:22;99344.47;;;9.79;81.57
19576;BME280;41589;51.196;7.074;2023-11-18T12:28:27;99335.00;;;9.86;81.75
19576;BME280;41589;51.196;7.074;2023-11-18T12:49:37;99276.19;;;9.66;81.90
19576;BME280;41589;51.196;7.074;2023-11-18T12:54:41;99236.44;;;9.68;81.98
19576;BME280;41589;51.196;7.074;2023-11-18T12:59:43;99233.47;;;9.71;81.86
19576;BME280;41589;51.196;7.074;2023-11-18T13:04:44;99204.59;;;9.71;82.38
19576;BME280;41589;51.196;7.074;2023-11-18T13:09:47;99183.91;;;9.65;81.73
19576;BME280;41589;51.196;7.074;2023-11-18T13:14:48;99191.88;;;9.66;82.25
19576;BME280;41589;51.196;7.074;2023-11-18T13:19:48;99190.22;;;9.69;82.16
19576;BME280;41589;51.196;7.074;2023-11-18T13:24:51;99175.00;;;9.66;82.43
19576;BME280;41589;51.196;7.074;2023-11-18T13:29:52;99125.81;;;9.62;82.50
19576;BME280;41589;51.196;7.074;2023-11-18T13:34:54;99092.88;;;9.62;82.64
19576;BME280;41589;51.196;7.074;2023-11-18T13:39:55;99093.66;;;9.63;82.28
19576;BME280;41589;51.196;7.074;2023-11-18T13:45:07;99092.47;;;9.73;83.18
19576;BME280;41589;51.196;7.074;2023-11-18T13:50:12;99089.34;;;9.71;82.01
19576;BME280;41589;51.196;7.074;2023-11-18T13:55:16;99081.22;;;9.73;82.21
19576;BME280;41589;51.196;7.074;2023-11-18T14:00:17;99062.81;;;9.72;82.23
19576;BME280;41589;51.196;7.074;2023-11-18T14:05:18;99036.66;;;9.62;82.23
19576;BME280;41589;51.196;7.074;2023-11-18T14:10:19;99019.66;;;9.66;82.84
19576;BME280;41589;51.196;7.074;2023-11-18T14:15:19;99002.47;;;9.64;83.04
19576;BME280;41589;51.196;7.074;2023-11-18T14:20:20;98986.69;;;9.57;83.04
19576;BME280;41589;51.196;7.074;2023-11-18T14:25:22;98973.13;;;9.65;82.97
19576;BME280;41589;51.196;7.074;2023-11-18T14:30:24;98965.94;;;9.64;83.28
19576;BME280;41589;51.196;7.074;2023-11-18T14:35:26;98947.34;;;9.57;82.75
19576;BME280;41589;51.196;7.074;2023-11-18T14:40:26;98931.25;;;9.57;82.74
19576;BME280;41589;51.196;7.074;2023-11-18T14:45:28;98932.31;;;9.51;83.22
19576;BME280;41589;51.196;7.074;2023-11-18T14:50:28;98947.09;;;9.42;83.25
19576;BME280;41589;51.196;7.074;2023-11-18T14:55:29;98946.81;;;9.49;83.76
19576;BME280;41589;51.196;7.074;2023-11-18T15:00:30;98932.41;;;9.38;84.01
19576;BME280;41589;51.196;7.074;2023-11-18T15:05:32;98927.09;;;9.40;84.21
19576;BME280;41589;51.196;7.074;2023-11-18T15:10:34;98919.91;;;9.39;84.20
19576;BME280;41589;51.196;7.074;2023-11-18T15:15:37;98906.19;;;9.41;84.32
19576;BME280;41589;51.196;7.074;2023-11-18T15:20:37;98888.25;;;9.39;84.71
19576;BME280;41589;51.196;7.074;2023-11-18T15:25:43;98892.88;;;9.33;84.92
19576;BME280;41589;51.196;7.074;2023-11-18T15:30:43;98885.91;;;9.37;85.47
19576;BME280;41589;51.196;7.074;2023-11-18T15:35:46;98854.84;;;9.41;85.35
19576;BME280;41589;51.196;7.074;2023-11-18T15:40:48;98850.94;;;9.38;85.27
19576;BME280;41589;51.196;7.074;2023-11-18T15:45:50;98847.03;;;9.45;85.79
19576;BME280;41589;51.196;7.074;2023-11-18T15:50:50;98839.72;;;9.38;86.03
19576;BME280;41589;51.196;7.074;2023-11-18T15:55:51;98819.84;;;9.33;86.36
19576;BME280;41589;51.196;7.074;2023-11-18T16:00:52;98807.06;;;9.32;85.98
19576;BME280;41589;51.196;7.074;2023-11-18T16:05:52;98794.09;;;9.34;86.21
19576;BME280;41589;51.196;7.074;2023-11-18T16:10:52;98793.63;;;9.26;86.58
19576;BME280;41589;51.196;7.074;2023-11-18T16:15:54;98783.47;;;9.29;87.38
19576;BME280;41589;51.196;7.074;2023-11-18T16:20:54;98805.50;;;9.31;87.58
19576;BME280;41589;51.196;7.074;2023-11-18T16:25:54;98794.88;;;9.25;87.42
19576;BME280;41589;51.196;7.074;2023-11-18T16:30:55;98785.19;;;9.26;87.89
19576;BME280;41589;51.196;7.074;2023-11-18T16:36:00;98782.88;;;9.34;87.75
19576;BME280;41589;51.196;7.074;2023-11-18T16:41:00;98762.25;;;9.28;88.14
19576;BME280;41589;51.196;7.074;2023-11-18T16:46:01;98741.94;;;9.24;88.09
19576;BME280;41589;51.196;7.074;2023-11-18T16:51:01;98746.19;;;9.28;88.23
19576;BME280;41589;51.196;7.074;2023-11-18T16:56:01;98741.34;;;9.29;88.62
19576;BME280;41589;51.196;7.074;2023-11-18T17:01:04;98743.53;;;9.34;88.80
19576;BME280;41589;51.196;7.074;2023-11-18T17:06:05;98741.81;;;8.56;97.79
19576;BME280;41589;51.196;7.074;2023-11-18T17:11:06;98730.25;;;10.02;93.55
19576;BME280;41589;51.196;7.074;2023-11-18T17:16:09;98711.91;;;10.62;92.14
19576;BME280;41589;51.196;7.074;2023-11-18T17:21:10;98700.16;;;11.06;91.42
19576;BME280;41589;51.196;7.074;2023-11-18T17:26:10;98690.13;;;11.47;89.66
19576;BME280;41589;51.196;7.074;2023-11-18T17:31:11;98703.78;;;11.63;88.28
19576;BME280;41589;51.196;7.074;2023-11-18T17:36:12;98691.66;;;12.10;88.24
19576;BME280;41589;51.196;7.074;2023-11-18T17:41:13;98674.25;;;12.12;85.39
19576;BME280;41589;51.196;7.074;2023-11-18T17:46:14;98670.16;;;12.13;85.26
19576;BME280;41589;51.196;7.074;2023-11-18T17:51:14;98680.75;;;12.03;84.32
19576;BME280;41589;51.196;7.074;2023-11-18T17:56:15;98669.25;;;11.92;83.20
19576;BME280;41589;51.196;7.074;2023-11-18T18:01:15;98649.13;;;11.61;83.33
19576;BME280;41589;51.196;7.074;2023-11-18T18:06:16;98664.84;;;11.28;83.10
19576;BME280;41589;51.196;7.074;2023-11-18T18:11:17;98687.81;;;11.03;82.99
19576;BME280;41589;51.196;7.074;2023-11-18T18:16:17;98675.13;;;10.75;83.86
19576;BME280;41589;51.196;7.074;2023-11-18T18:21:17;98690.94;;;10.63;84.44
19576;BME280;41589;51.196;7.074;2023-11-18T18:26:18;98687.97;;;10.57;85.00
19576;BME280;41589;51.196;7.074;2023-11-18T18:31:18;98664.91;;;10.35;85.33
19576;BME280;41589;51.196;7.074;2023-11-18T18:36:18;98684.59;;;10.26;86.26
19576;BME280;41589;51.196;7.074;2023-11-18T18:41:19;98687.59;;;10.22;86.52
19576;BME280;41589;51.196;7.074;2023-11-18T18:46:19;98672.56;;;10.25;86.88
19576;BME280;41589;51.196;7.074;2023-11-18T18:51:19;98655.41;;;10.23;87.16
19576;BME280;41589;51.196;7.074;2023-11-18T18:56:20;98653.03;;;10.31;87.54
19576;BME280;41589;51.196;7.074;2023-11-18T19:01:22;98674.00;;;10.30;87.57
19576;BME280;41589;51.196;7.074;2023-11-18T19:06:22;98663.81;;;10.32;87.06
19576;BME280;41589;51.196;7.074;2023-11-18T19:11:23;98682.25;;;10.33;87.82
19576;BME280;41589;51.196;7.074;2023-11-18T19:16:23;98683.94;;;10.40;87.42
19576;BME280;41589;51.196;7.074;2023-11-18T19:21:24;98678.31;;;10.40;87.99
19576;BME280;41589;51.196;7.074;2023-11-18T19:26:25;98685.53;;;10.41;88.75
19576;BME280;41589;51.196;7.074;2023-11-18T19:31:25;98663.13;;;10.56;88.76
19576;BME280;41589;51.196;7.074;2023-11-18T19:36:26;98670.50;;;10.53;88.89
19576;BME280;41589;51.196;7.074;2023-11-18T19:41:26;98667.81;;;10.59;88.65
19576;BME280;41589;51.196;7.074;2023-11-18T19:46:27;98649.53;;;10.54;89.14
19576;BME280;41589;51.196;7.074;2023-11-18T19:51:27;98647.19;;;10.53;89.14
19576;BME280;41589;51.196;7.074;2023-11-18T19:56:27;98617.63;;;10.57;89.89
19576;BME280;41589;51.196;7.074;2023-11-18T20:01:29;98610.44;;;10.56;89.87
19576;BME280;41589;51.196;7.074;2023-11-18T20:06:29;98628.38;;;10.68;90.29
19576;BME280;41589;51.196;7.074;2023-11-18T20:11:30;98622.25;;;10.69;90.28
19576;BME280;41589;51.196;7.074;2023-11-18T20:16:31;98604.88;;;10.71;89.85
19576;BME280;41589;51.196;7.074;2023-11-18T20:21:32;98591.28;;;10.69;90.65
19576;BME280;41589;51.196;7.074;2023-11-18T20:26:32;98585.63;;;10.79;90.55
19576;BME280;41589;51.196;7.074;2023-11-18T20:31:33;98577.34;;;10.75;90.31
19576;BME280;41589;51.196;7.074;2023-11-18T20:36:33;98572.31;;;10.79;90.94
19576;BME280;41589;51.196;7.074;2023-11-18T20:41:33;98572.81;;;10.78;91.56
19576;BME280;41589;51.196;7.074;2023-11-18T20:46:34;98557.59;;;10.84;91.41
19576;BME280;41589;51.196;7.074;2023-11-18T20:51:34;98547.06;;;10.94;91.75
19576;BME280;41589;51.196;7.074;2023-11-18T20:56:35;98547.56;;;10.92;91.54
19576;BME280;41589;51.196;7.074;2023-11-18T21:01:35;98549.88;;;10.94;91.80
19576;BME280;41589;51.196;7.074;2023-11-18T21:06:36;98535.63;;;10.97;91.93
19576;BME280;41589;51.196;7.074;2023-11-18T21:11:37;98530.13;;;11.03;92.46
19576;BME280;41589;51.196;7.074;2023-11-18T21:16:37;98533.63;;;11.13;92.29
19576;BME280;41589;51.196;7.074;2023-11-18T21:21:37;98530.94;;;11.18;92.34
19576;BME280;41589;51.196;7.074;2023-11-18T21:26:39;98545.94;;;11.24;91.59
19576;BME280;41589;51.196;7.074;2023-11-18T21:31:39;98542.34;;;11.24;91.78
19576;BME280;41589;51.196;7.074;2023-11-18T21:36:40;98507.78;;;11.23;92.34
19576;BME280;41589;51.196;7.074;2023-11-18T21:41:41;98515.34;;;11.32;92.98
19576;BME280;41589;51.196;7.074;2023-11-18T21:46:41;98495.25;;;11.39;92.01
19576;BME280;41589;51.196;7.074;2023-11-18T21:51:41;98501.09;;;11.36;92.63
19576;BME280;41589;51.196;7.074;2023-11-18T21:56:42;98507.09;;;11.43;93.08
19576;BME280;41589;51.196;7.074;2023-11-18T22:01:42;98495.94;;;11.49;92.93
19576;BME280;41589;51.196;7.074;2023-11-18T22:06:43;98481.06;;;11.63;92.54
19576;BME280;41589;51.196;7.074;2023-11-18T22:11:44;98481.06;;;11.63;92.81
19576;BME280;41589;51.196;7.074;2023-11-18T22:16:44;98467.09;;;11.69;92.81
19576;BME280;41589;51.196;7.074;2023-11-18T22:21:45;98470.88;;;11.66;93.29
19576;BME280;41589;51.196;7.074;2023-11-18T22:26:48;98492.09;;;11.76;92.76
19576;BME280;41589;51.196;7.074;2023-11-18T22:31:50;98488.06;;;11.82;92.97
19576;BME280;41589;51.196;7.074;2023-11-18T22:36:50;98494.00;;;11.84;92.40
19576;BME280;41589;51.196;7.074;2023-11-18T22:41:51;98491.66;;;11.83;92.75
19576;BME280;41589;51.196;7.074;2023-11-18T22:46:51;98485.94;;;11.77;93.16
19576;BME280;41589;51.196;7.074;2023-11-18T22:51:51;98467.06;;;11.83;93.81
19576;BME280;41589;51.196;7.074;2023-11-18T22:56:54;98458.50;;;11.93;93.99
19576;BME280;41589;51.196;7.074;2023-11-18T23:01:54;98449.38;;;11.98;93.71
19576;BME280;41589;51.196;7.074;2023-11-18T23:06:55;98447.50;;;11.95;93.54
19576;BME280;41589;51.196;7.074;2023-11-18T23:11:57;98443.53;;;12.01;93.84
19576;BME280;41589;51.196;7.074;2023-11-18T23:16:57;98438.66;;;12.02;94.14
19576;BME280;41589;51.196;7.074;2023-11-18T23:21:59;98444.88;;;12.06;94.22
19576;BME280;41589;51.196;7.074;2023-11-18T23:27:06;98435.44;;;12.09;94.53
19576;BME280;41589;51.196;7.074;2023-11-18T23:32:07;98441.25;;;12.20;94.41
19576;BME280;41589;51.196;7.074;2023-11-18T23:37:07;98438.22;;;12.24;94.11
19576;BME280;41589;51.196;7.074;2023-11-18T23:42:08;98430.13;;;12.31;94.86
19576;BME280;41589;51.196;7.074;2023-11-18T23:47:10;98422.31;;;12.41;94.46
19576;BME280;41589;51.196;7.074;2023-11-18T23:52:10;98403.59;;;12.43;94.84
19576;BME280;41589;51.196;7.074;2023-11-18T23:57:11;98409.38;;;12.49;94.67
